• Join FlightAware (Why Join?)
  • Login
  • US Flag 
06:09PM EST


 

Airport Tracker/Info


-or-


 

Live Flight TrackerFlight Track Log ✈ FLG3825 ✈ 26-Apr-2014 ✈ KPIT - KMSP

Flight Track Log - Related Links

Times and Time Zones

All times are in EDT time to prevent confusion due to time zone crossing. See the FLG3825 flight status page for this flight to view local times or setup timezone preferences in your user account.

Time Position Orientation Groundspeed Altitude Reporting Facility
EDT Latitude Longitude Course Direction KTS MPH feet Rate Location/Type
03:26PM 40.4967 -80.2803 287° West 173 199 3,100  Level Cleveland Center
03:27PM 40.5119 -80.3444 287° West 180 207 4,900 2,293 Climbing Cleveland Center
03:28PM 40.5294 -80.4267 286° West 224 258 7,800 2,878 Climbing Cleveland Center
03:29PM 40.5503 -80.5219 286° West 226 260 10,800 2,177 Climbing Cleveland Center
03:30PM 40.5706 -80.6158 286° West 263 303 12,300 1,306 Climbing Cleveland Center
03:31PM 40.5922 -80.7194 285° West 288 331 13,500 1,512 Climbing Cleveland Center
03:32PM 40.6172 -80.8361 286° West 322 371 15,400 1,756 Climbing Cleveland Center
03:33PM 40.6425 -80.9531 286° West 331 381 17,100 1,645 Climbing Cleveland Center
03:34PM 40.6689 -81.0822 285° West 341 392 18,800 1,597 Climbing Cleveland Center
03:35PM 40.6950 -81.2064 286° West 345 397 20,400 1,415 Climbing Cleveland Center
03:36PM 40.7208 -81.3319 285° West 348 400 21,700 1,171 Climbing Cleveland Center
03:37PM 40.7500 -81.4606 287° West 358 412 22,800 1,210 Climbing Cleveland Center
03:38PM 40.7969 -81.6047 293° West 361 415 24,200 1,161 Climbing Cleveland Center
03:39PM 40.8386 -81.7308 294° West 367 422 25,200 1,024 Climbing Cleveland Center
03:40PM 40.8778 -81.8583 292° West 368 423 26,300 1,122 Climbing Cleveland Center
03:41PM 40.9019 -81.9944 283° West 372 428 27,500 1,403 Climbing Cleveland Center
03:43PM 40.9247 -82.1264 283° West 367 422 29,200 1,452 Climbing Cleveland Center
03:44PM 40.9469 -82.2531 283° West 357 411 30,500 1,317 Climbing Cleveland Center
03:45PM 40.9686 -82.3783 283° West 350 403 31,900 1,366 Climbing Cleveland Center
03:46PM 40.9886 -82.4989 282° West 338 389 33,300 1,016 Climbing Cleveland Center
03:47PM 41.0100 -82.6178 283° West 330 380 34,000 341 Climbing Cleveland Center
03:48PM 41.0294 -82.7400 282° West 332 382 34,000  Level Cleveland Center
03:49PM 41.0503 -82.8642 283° West 336 387 34,000  Level Cleveland Center
03:50PM 41.0819 -82.9814 290° West 336 387 34,000  Level Cleveland Center
03:51PM 41.1367 -83.1108 299° West 338 389 34,000  Level Cleveland Center
03:52PM 41.1778 -83.2072 300° West 338 389 34,000  Level Cleveland Center
03:53PM 41.2231 -83.3172 299° West 339 390 34,000  Level Cleveland Center
03:54PM 41.2786 -83.4508 299° West 340 391 34,000  Level Cleveland Center
03:55PM 41.3247 -83.5608 299° West 340 391 34,000  Level Cleveland Center
03:56PM 41.3700 -83.6728 298° West 342 394 34,000  Level Cleveland Center
03:57PM 41.4153 -83.7833 299° West 343 395 34,000  Level Cleveland Center
03:58PM 41.4608 -83.8953 299° West 343 395 34,000  Level Cleveland Center
03:59PM 41.5058 -84.0078 298° West 343 395 34,000  Level Cleveland Center
04:00PM 41.5517 -84.1208 298° West 343 395 34,000  Level Cleveland Center
04:01PM 41.5972 -84.2331 299° West 343 395 34,000  Level Cleveland Center
04:02PM 41.6492 -84.3619 298° West 344 396 34,000  Level Cleveland Center
04:03PM 41.6936 -84.4742 298° West 344 396 34,000  Level Cleveland Center
04:04PM 41.7378 -84.5867 298° West 343 395 34,000  Level Cleveland Center
04:05PM 41.7831 -84.6992 298° West 344 396 34,000  Level Cleveland Center
04:06PM 41.8367 -84.8347 298° West 345 397 34,000  Level Cleveland Center
04:07PM 41.8806 -84.9483 297° West 345 397 34,000  Level Cleveland Center
04:08PM 41.9261 -85.0628 298° West 347 399 34,000  Level Cleveland Center
04:09PM 41.9703 -85.1764 298° West 347 399 34,000  Level Cleveland Center
04:10PM 42.0147 -85.2911 298° West 347 399 34,000  Level Cleveland Center
04:11PM 42.0583 -85.4056 297° West 348 400 34,000  Level Cleveland Center
04:12PM 42.1119 -85.5442 298° West 349 402 34,000  Level Cleveland Center
04:13PM 42.1561 -85.6594 297° West 349 402 34,000  Level Cleveland Center
04:14PM 42.2008 -85.7761 297° West 349 402 34,000  Level Cleveland Center
04:15PM 42.2447 -85.8933 297° West 350 403 34,000  Level Cleveland Center
04:16PM 42.2892 -86.0106 297° West 350 403 34,000  Level Cleveland Center
04:18PM 42.3400 -86.1442 297° West 352 405 34,000  Level Cleveland Center
04:19PM 42.3894 -86.2594 300° West 352 405 34,000  Level Cleveland Center
04:20PM 42.4644 -86.4153 303° West 351 404 34,000  Level Chicago Center
04:21PM 42.5181 -86.5297 302° West 355 409 34,000  Level Chicago Center
04:22PM 42.5719 -86.6431 303° West 353 406 34,000  Level Chicago Center
04:23PM 42.6264 -86.7561 303° West 353 406 34,000  Level Chicago Center
04:24PM 42.6908 -86.8928 303° West 354 407 34,000  Level Chicago Center
04:25PM 42.7442 -87.0058 303° West 351 404 34,000  Level Chicago Center
04:26PM 42.7975 -87.1183 303° West 352 405 34,000  Level Chicago Center
04:27PM 42.8500 -87.2336 302° West 355 409 34,000  Level Chicago Center
04:28PM 42.9042 -87.3483 303° West 357 411 34,000  Level Chicago Center
04:29PM 42.9656 -87.4789 303° West 356 410 34,000  Level Chicago Center
04:30PM 43.0194 -87.5917 303° West 356 410 34,000  Level Chicago Center
04:31PM 43.0683 -87.6997 302° West 340 391 34,000  Level Chicago Center
04:32PM 43.1158 -87.8031 302° West 326 375 34,000  Level Chicago Center
04:33PM 43.1631 -87.9061 302° West 323 372 34,000  Level Chicago Center
04:34PM 43.2206 -88.0314 302° West 324 373 34,000  Level Chicago Center
04:35PM 43.2694 -88.1361 303° West 325 374 34,000  Level Chicago Center
04:36PM 43.3183 -88.2433 302° West 331 381 34,000  Level Chicago Center
04:38PM 43.3661 -88.3494 302° West 328 377 34,000  Level Chicago Center
04:39PM 43.4217 -88.4692 303° West 336 387 34,000  Level Chicago Center
04:40PM 43.5019 -88.5261 333° Northwest 344 396 34,000  Level Chicago Center
04:41PM 43.6094 -88.5333 357° North 379 436 34,000  Level Chicago Center
04:42PM 43.7006 -88.5786 340° North 370 426 34,000  Level Chicago Center
04:43PM 43.7369 -88.6928 294° West 341 392 34,000  Level Chicago Center
04:44PM 43.7781 -88.8361 292° West 338 389 34,000  Level Chicago Center
04:45PM 43.8117 -88.9553 291° West 335 386 34,000  Level Minneapolis Center
04:46PM 43.8431 -89.0789 289° West 338 389 34,000  Level Chicago Center
04:47PM 43.8764 -89.2008 291° West 338 389 34,000  Level Chicago Center
04:48PM 43.9089 -89.3236 290° West 339 390 34,000  Level Chicago Center
04:49PM 43.9422 -89.4475 291° West 340 391 34,000  Level Chicago Center
04:50PM 43.9814 -89.5967 290° West 344 396 34,000  Level Chicago Center
04:51PM 44.0139 -89.7217 290° West 345 397 34,000  Level Minneapolis Center
04:52PM 44.0464 -89.8467 290° West 345 397 34,000  Level Minneapolis Center
04:53PM 44.0800 -89.9678 291° West 340 391 34,000  Level Minneapolis Center
04:54PM 44.1286 -90.0797 301° West 340 391 34,000  Level Minneapolis Center
04:55PM 44.1694 -90.1972 296° West 340 391 34,000  Level Minneapolis Center
04:56PM 44.2183 -90.3358 296° West 336 387 34,000  Level Minneapolis Center
04:57PM 44.2583 -90.4539 295° West 336 387 34,000 -390 Level Minneapolis Center
04:58PM 44.2950 -90.5575 296° West 336 387 33,200 -1,306 Descending Minneapolis Center
04:59PM 44.3447 -90.7008 296° West 364 419 31,300 -1,756 Descending Minneapolis Center
05:00PM 44.3908 -90.8367 295° West 382 440 29,600 -1,756 Descending Minneapolis Center
05:01PM 44.4447 -90.9928 296° West 392 451 27,700 -1,742 Descending Minneapolis Center
05:02PM 44.4911 -91.1328 295° West 394 453 26,000 -1,805 Descending Minneapolis Center
05:03PM 44.5375 -91.2692 296° West 395 455 24,000 -1,951 Descending Minneapolis Center
05:04PM 44.5794 -91.3972 295° West 374 430 22,000 -1,951 Descending Minneapolis Center
05:05PM 44.6214 -91.5192 296° West 357 411 20,000 -1,951 Descending Minneapolis Center
05:06PM 44.6619 -91.6392 295° West 346 398 18,000 -2,129 Descending Minneapolis Center
05:07PM 44.7131 -91.7969 295° West 365 420 15,600 -2,146 Descending Minneapolis Center
05:08PM 44.7539 -91.9197 295° West 351 404 13,600 -1,951 Descending Minneapolis Center
05:09PM 44.7931 -92.0369 295° West 335 386 11,600 -1,707 Descending Minneapolis Center
05:10PM 44.8308 -92.1558 294° West 335 386 10,100 -780 Descending Minneapolis Center
05:12PM 44.8694 -92.2761 294° West 336 387 10,000 -48 Descending Minneapolis Center
05:13PM 44.8733 -92.4025 273° West 341 392 10,000  Level Minneapolis Center
05:14PM 44.8464 -92.5297 253° West 342 394 10,000  Level Minneapolis Center
05:15PM 44.8161 -92.6861 255° West 343 395 10,000  Level Minneapolis Center
05:16PM 44.7917 -92.8150 255° West 343 395 10,000 -195 Level Minneapolis Center
05:17PM 44.7736 -92.9275 257° West 294 338 9,600 -488 Descending Minneapolis Center
05:18PM 44.7833 -93.0325 277° West 275 316 9,000 -634 Descending Minneapolis Center
05:19PM 44.7950 -93.1397 279° West 278 320 8,300 -488 Descending Minneapolis Center
05:20PM 44.8231 -93.2586 288° West 280 322 8,000 -146 Descending Minneapolis Center
05:21PM 44.8528 -93.3581 293° West 280 322 8,000 -829 Level Minneapolis Center
05:22PM 44.8811 -93.4589 292° West 280 322 6,300 -1,415 Descending Minneapolis Center
05:23PM 44.9092 -93.5503 293° West 259 298 5,100 -683 Descending Minneapolis Center
05:24PM 44.9464 -93.5217 29° Northeast 196 226 4,900 -585 Descending Minneapolis Center
05:25PM 44.9425 -93.4564 95° East 171 197 3,900 -829 Descending Minneapolis Center
05:26PM 44.9369 -93.3972 98° East 155 178 3,200 -585 Descending Minneapolis Center
05:27PM 44.9317 -93.3458 98° East 136 157 2,700 -634 Descending Minneapolis Center
05:28PM 44.9142 -93.2936 115° Southeast 126 145 1,900 -780 Descending Minneapolis Center
05:29PM 44.8947 -93.2494 122° Southeast 129 148 1,100 -774 Descending Minneapolis Center
05:31PM 44.8820 -93.2218 98° East  Level Estimated
05:38PM 44.8820 -93.2218 98° East  Level Estimated